Time;durP1;ratioP1;P1;durP2;ratioP2;P2;SDS_P1;SDS_P2;PMS_P1;PMS_P2;Temp;Humidity;BMP_temperature;BMP_pressure;BME280_temperature;BME280_humidity;BME280_pressure;Samples;Min_cycle;Max_cycle;Signal;HPM_P1;HPM_P2
2023/06/09 00:00:48;;;;;;;19.48;6.22;;;;;;;-144.87;100.00;61487.56;5015150;28;20057;-70
2023/06/09 00:03:21;;;;;;;21.77;6.28;;;;;;;-144.87;100.00;61487.56;4985216;28;20051;-71
2023/06/09 00:05:48;;;;;;;19.30;6.28;;;;;;;-144.87;100.00;61487.56;5000219;28;20030;-70
2023/06/09 00:08:15;;;;;;;19.25;6.72;;;;;;;-144.87;100.00;61487.56;4984143;28;20117;-70
2023/06/09 00:10:42;;;;;;;31.48;6.75;;;;;;;-144.87;100.00;61487.56;4984221;28;20061;-70
2023/06/09 00:13:09;;;;;;;17.48;5.95;;;;;;;-144.87;100.00;61487.56;4986441;28;20049;-70
2023/06/09 00:15:36;;;;;;;18.88;6.93;;;;;;;-144.87;100.00;61487.56;4999677;28;20132;-70
2023/06/09 00:18:02;;;;;;;26.35;7.97;;;;;;;-144.87;100.00;61487.56;4977158;28;20042;-71
2023/06/09 00:20:33;;;;;;;23.63;6.97;;;;;;;-144.87;100.00;61487.56;4985876;28;20125;-70
2023/06/09 00:23:00;;;;;;;20.13;6.38;;;;;;;-144.87;100.00;61487.56;4997054;28;20038;-71
2023/06/09 00:25:26;;;;;;;23.92;5.82;;;;;;;-144.87;100.00;61487.56;4988907;28;20124;-70
2023/06/09 00:27:53;;;;;;;21.80;6.65;;;;;;;-144.87;100.00;61487.56;4989637;28;20192;-70
2023/06/09 00:30:22;;;;;;;19.20;6.25;;;;;;;-144.87;100.00;61487.56;5006059;28;20046;-71
2023/06/09 00:32:49;;;;;;;22.92;7.32;;;;;;;-144.87;100.00;61487.56;4997959;28;20030;-70
2023/06/09 00:35:15;;;;;;;28.60;6.97;;;;;;;-144.87;100.00;61487.56;5017592;28;20044;-70
2023/06/09 00:37:42;;;;;;;25.23;7.70;;;;;;;-144.87;100.00;61487.56;4999531;28;20039;-70
2023/06/09 00:40:08;;;;;;;18.63;5.88;;;;;;;-144.87;100.00;61487.56;4994627;28;20113;-71
2023/06/09 00:42:35;;;;;;;23.40;6.85;;;;;;;-144.87;100.00;61487.56;4995031;28;20082;-71
2023/06/09 00:45:01;;;;;;;21.13;6.22;;;;;;;-144.87;100.00;61487.56;4992619;28;20046;-71
2023/06/09 00:47:28;;;;;;;18.83;6.55;;;;;;;-144.87;100.00;61487.56;4991147;28;20137;-70
2023/06/09 00:49:54;;;;;;;17.90;6.15;;;;;;;-144.87;100.00;61487.56;5002481;28;20420;-70
2023/06/09 00:52:21;;;;;;;20.20;6.40;;;;;;;-144.87;100.00;61487.56;4986547;28;20034;-68
2023/06/09 00:54:47;;;;;;;21.25;5.78;;;;;;;-144.87;100.00;61487.56;5002343;28;20491;-68
2023/06/09 00:57:14;;;;;;;24.27;7.15;;;;;;;-144.87;100.00;61487.56;4986435;28;20034;-70
2023/06/09 00:59:40;;;;;;;15.50;5.82;;;;;;;-144.87;100.00;61487.56;5001191;28;20073;-70
2023/06/09 01:02:07;;;;;;;24.25;6.75;;;;;;;-144.87;100.00;61487.56;4981373;28;20057;-70
2023/06/09 01:04:34;;;;;;;23.50;7.25;;;;;;;-144.87;100.00;61487.56;5002332;28;20049;-68
2023/06/09 01:07:25;;;;;;;27.33;6.93;;;;;;;-144.87;100.00;61487.56;5022904;28;20037;-70
2023/06/09 01:09:56;;;;;;;;;;;;;;;-144.87;100.00;61487.56;5004140;28;20383;-70
2023/06/09 01:12:34;;;;;;;26.70;7.13;;;;;;;-144.87;100.00;61487.56;5005019;28;19955;-70
2023/06/09 01:15:23;;;;;;;23.77;6.90;;;;;;;-144.87;100.00;61487.56;5016744;28;20068;-70
2023/06/09 01:17:55;;;;;;;17.63;6.53;;;;;;;-144.87;100.00;61487.56;5006349;28;20156;-70
2023/06/09 01:20:38;;;;;;;23.42;6.70;;;;;;;-144.87;100.00;61487.56;5000773;28;20049;-70
2023/06/09 01:23:08;;;;;;;19.15;6.15;;;;;;;-144.87;100.00;61487.56;5024134;28;20091;-71
2023/06/09 01:25:41;;;;;;;22.00;6.95;;;;;;;-144.87;100.00;61487.56;5016408;28;20094;-70
2023/06/09 01:28:20;;;;;;;22.67;7.28;;;;;;;-144.87;100.00;61487.56;5007202;28;20046;-70
2023/06/09 01:30:48;;;;;;;23.35;7.70;;;;;;;-144.87;100.00;61487.56;4987125;28;20045;-70
2023/06/09 01:33:23;;;;;;;20.50;6.50;;;;;;;-144.87;100.00;61487.56;4998135;28;20041;-70
2023/06/09 01:35:50;;;;;;;17.52;6.85;;;;;;;-144.87;100.00;61487.56;4989458;28;20041;-71
2023/06/09 01:38:19;;;;;;;20.58;6.60;;;;;;;-144.87;100.00;61487.56;5034597;28;20042;-71
2023/06/09 01:40:45;;;;;;;22.80;6.85;;;;;;;-144.87;100.00;61487.56;5002684;28;20044;-69
2023/06/09 01:43:12;;;;;;;19.95;6.13;;;;;;;-144.87;100.00;61487.56;5009896;28;20041;-71
2023/06/09 01:45:38;;;;;;;28.00;7.50;;;;;;;-144.87;100.00;61487.56;5042603;28;20040;-71
2023/06/09 01:48:10;;;;;;;23.00;6.55;;;;;;;-144.87;100.00;61487.56;5029517;28;20349;-70
2023/06/09 01:50:52;;;;;;;18.42;7.20;;;;;;;-144.87;100.00;61487.56;5029901;28;20033;-71
2023/06/09 01:53:40;;;;;;;16.65;6.10;;;;;;;-144.87;100.00;61487.56;5011983;28;20156;-70
2023/06/09 01:56:12;;;;;;;21.00;7.05;;;;;;;-144.87;100.00;61487.56;5025072;28;20332;-71
2023/06/09 01:58:47;;;;;;;18.65;6.70;;;;;;;-144.87;100.00;61487.56;4994611;28;20030;-70
2023/06/09 02:01:18;;;;;;;15.80;6.57;;;;;;;-144.87;100.00;61487.56;4988200;28;20042;-69
2023/06/09 02:03:47;;;;;;;20.35;6.70;;;;;;;-144.87;100.00;61487.56;4987712;28;20058;-71
2023/06/09 02:06:14;;;;;;;24.40;6.68;;;;;;;-144.87;100.00;61487.56;5004014;28;20024;-72
2023/06/09 02:08:40;;;;;;;20.95;6.38;;;;;;;-144.87;100.00;61487.56;4988644;28;20056;-71
2023/06/09 02:11:08;;;;;;;22.08;7.28;;;;;;;-144.87;100.00;61487.56;4985194;28;20037;-70
2023/06/09 02:13:34;;;;;;;25.70;7.38;;;;;;;-144.87;100.00;61487.56;4998819;28;20034;-70
2023/06/09 02:16:00;;;;;;;22.77;6.68;;;;;;;-144.87;100.00;61487.56;5004063;28;20096;-70
2023/06/09 02:18:27;;;;;;;19.30;6.18;;;;;;;-144.87;100.00;61487.56;4997351;28;20181;-70
2023/06/09 02:20:53;;;;;;;16.13;6.45;;;;;;;-144.87;100.00;61487.56;5000038;28;20395;-70
2023/06/09 02:23:23;;;;;;;20.98;6.00;;;;;;;-144.87;100.00;61487.56;4993782;28;20122;-70
2023/06/09 02:25:50;;;;;;;19.43;7.10;;;;;;;-144.87;100.00;61487.56;5000260;28;20029;-71
2023/06/09 02:28:16;;;;;;;21.63;8.30;;;;;;;-144.87;100.00;61487.56;4989239;28;20088;-69
2023/06/09 02:30:44;;;;;;;21.02;7.60;;;;;;;-144.87;100.00;61487.56;4986230;28;20116;-70
2023/06/09 02:33:14;;;;;;;24.10;7.07;;;;;;;-144.87;100.00;61487.56;5002083;28;20048;-70
2023/06/09 02:35:41;;;;;;;34.67;6.88;;;;;;;-144.87;100.00;61487.56;5004438;28;20038;-71
2023/06/09 02:38:07;;;;;;;21.02;6.40;;;;;;;-144.87;100.00;61487.56;5003703;28;20045;-71
2023/06/09 02:40:33;;;;;;;16.63;6.65;;;;;;;-144.87;100.00;61487.56;4999195;28;20040;-72
2023/06/09 02:43:01;;;;;;;13.45;5.43;;;;;;;-144.87;100.00;61487.56;5002468;28;20439;-70
2023/06/09 02:45:27;;;;;;;19.88;6.68;;;;;;;-144.87;100.00;61487.56;5000953;28;20034;-69
2023/06/09 02:47:53;;;;;;;21.65;7.10;;;;;;;-144.87;100.00;61487.56;5000367;28;20247;-71
2023/06/09 02:50:19;;;;;;;22.10;6.53;;;;;;;-144.87;100.00;61487.56;4991940;28;20030;-70
2023/06/09 02:52:50;;;;;;;;;;;;;;;-144.87;100.00;61487.56;4998107;28;20505;-70
2023/06/09 02:55:21;;;;;;;20.40;6.88;;;;;;;-144.87;100.00;61487.56;5000031;28;19918;-71
2023/06/09 02:57:49;;;;;;;;;;;;;;;-144.87;100.00;61487.56;4987417;28;20121;-71
2023/06/09 03:00:17;;;;;;;15.10;6.68;;;;;;;-144.87;100.00;61487.56;4992678;28;19941;-71
2023/06/09 03:02:46;;;;;;;17.52;7.03;;;;;;;-144.87;100.00;61487.56;4968889;28;20070;-71
2023/06/09 03:05:13;;;;;;;18.35;6.75;;;;;;;-144.87;100.00;61487.56;4989586;28;20397;-69
2023/06/09 03:07:39;;;;;;;15.68;6.57;;;;;;;-144.87;100.00;61487.56;4974609;28;20049;-70
2023/06/09 03:10:07;;;;;;;21.38;7.20;;;;;;;-144.87;100.00;61487.56;4985081;28;20042;-70
2023/06/09 03:12:37;;;;;;;;;;;;;;;-144.87;100.00;61487.56;4969881;28;20038;-70
2023/06/09 03:15:04;;;;;;;17.80;7.38;;;;;;;-144.87;100.00;61487.56;4991599;28;19936;-70
2023/06/09 03:17:30;;;;;;;18.55;6.97;;;;;;;-144.87;100.00;61487.56;4989435;28;20038;-70
2023/06/09 03:19:57;;;;;;;23.70;7.88;;;;;;;-144.87;100.00;61487.56;4984352;28;20060;-70
2023/06/09 03:22:27;;;;;;;24.27;7.53;;;;;;;-144.87;100.00;61487.56;4997433;28;20025;-70
2023/06/09 03:24:54;;;;;;;25.98;7.88;;;;;;;-144.87;100.00;61487.56;4982546;28;20061;-71
2023/06/09 03:27:21;;;;;;;19.13;8.30;;;;;;;-144.87;100.00;61487.56;4987681;28;20030;-71
2023/06/09 03:29:47;;;;;;;23.92;7.97;;;;;;;-144.87;100.00;61487.56;4980614;28;20046;-70
2023/06/09 03:32:14;;;;;;;17.98;7.25;;;;;;;-144.87;100.00;61487.56;5016019;28;20068;-71
2023/06/09 03:34:40;;;;;;;19.17;7.63;;;;;;;-144.87;100.00;61487.56;4992280;28;20038;-72
2023/06/09 03:37:10;;;;;;;25.40;7.88;;;;;;;-144.87;100.00;61487.56;4992344;28;20141;-68
2023/06/09 03:39:37;;;;;;;21.35;7.60;;;;;;;-144.87;100.00;61487.56;4990389;28;20045;-70
2023/06/09 03:42:03;;;;;;;18.83;9.32;;;;;;;-144.87;100.00;61487.56;4988117;28;20029;-72
2023/06/09 03:44:30;;;;;;;18.38;8.45;;;;;;;-144.87;100.00;61487.56;4984207;28;20038;-69
2023/06/09 03:46:56;;;;;;;23.13;8.65;;;;;;;-144.87;100.00;61487.56;5015384;28;20033;-69
2023/06/09 03:49:23;;;;;;;25.40;8.60;;;;;;;-144.87;100.00;61487.56;4984805;28;20106;-69
2023/06/09 03:51:49;;;;;;;19.17;8.52;;;;;;;-144.87;100.00;61487.56;5010809;28;20034;-69
2023/06/09 03:54:16;;;;;;;17.48;7.28;;;;;;;-144.87;100.00;61487.56;5000424;28;20038;-70
2023/06/09 03:56:42;;;;;;;19.50;7.78;;;;;;;-144.87;100.00;61487.56;4989466;28;20049;-71
2023/06/09 03:59:09;;;;;;;22.20;8.20;;;;;;;-144.87;100.00;61487.56;4990565;28;20483;-71
2023/06/09 04:01:36;;;;;;;19.15;7.68;;;;;;;-144.87;100.00;61487.56;4999081;28;20561;-70
2023/06/09 04:04:03;;;;;;;16.95;7.95;;;;;;;-144.87;100.00;61487.56;5001617;28;20044;-71
2023/06/09 04:06:31;;;;;;;23.30;7.63;;;;;;;-144.87;100.00;61487.56;5023449;28;20041;-71
2023/06/09 04:08:58;;;;;;;24.75;8.20;;;;;;;-144.87;100.00;61487.56;5004444;28;20036;-71
2023/06/09 04:11:24;;;;;;;22.20;7.50;;;;;;;-144.87;100.00;61487.56;5030336;28;20030;-71
2023/06/09 04:13:52;;;;;;;18.70;8.15;;;;;;;-144.87;100.00;61487.56;5005452;28;20558;-72
2023/06/09 04:16:19;;;;;;;19.50;7.32;;;;;;;-144.87;100.00;61487.56;5020204;28;20060;-69
2023/06/09 04:18:46;;;;;;;22.42;7.70;;;;;;;-144.87;100.00;61487.56;5023175;28;20310;-70
2023/06/09 04:21:14;;;;;;;21.95;7.72;;;;;;;-144.87;100.00;61487.56;4981971;28;20120;-72
2023/06/09 04:23:40;;;;;;;20.25;7.32;;;;;;;-144.87;100.00;61487.56;5022127;28;20075;-70
2023/06/09 04:26:08;;;;;;;23.00;8.02;;;;;;;-144.87;100.00;61487.56;5007925;28;20029;-72
2023/06/09 04:28:37;;;;;;;24.30;7.88;;;;;;;-144.87;100.00;61487.56;5014435;28;20049;-72
2023/06/09 04:31:06;;;;;;;19.20;7.68;;;;;;;-144.87;100.00;61487.56;5033927;28;20034;-70
2023/06/09 04:33:36;;;;;;;22.20;7.38;;;;;;;-144.87;100.00;61487.56;5026741;28;20065;-69
2023/06/09 04:36:03;;;;;;;21.15;7.95;;;;;;;-144.87;100.00;61487.56;5017428;28;20121;-71
2023/06/09 04:38:34;;;;;;;20.75;7.20;;;;;;;-144.87;100.00;61487.56;5002698;28;20041;-70
2023/06/09 04:41:04;;;;;;;17.48;7.25;;;;;;;-144.87;100.00;61487.56;5020734;28;20102;-69
2023/06/09 04:43:34;;;;;;;23.33;7.18;;;;;;;-144.87;100.00;61487.56;5005207;28;20030;-70
2023/06/09 04:46:05;;;;;;;21.83;7.40;;;;;;;-144.87;100.00;61487.56;5021654;28;20570;-70
2023/06/09 04:48:33;;;;;;;21.15;7.15;;;;;;;-144.87;100.00;61487.56;5021227;28;20217;-70
2023/06/09 04:51:01;;;;;;;20.85;7.68;;;;;;;-144.87;100.00;61487.56;5022584;28;20407;-71
2023/06/09 04:53:29;;;;;;;19.38;7.80;;;;;;;-144.87;100.00;61487.56;5018806;28;20158;-71
2023/06/09 04:55:56;;;;;;;18.67;6.75;;;;;;;-144.87;100.00;61487.56;5031998;28;20056;-70
2023/06/09 04:58:28;;;;;;;;;;;;;;;-144.87;100.00;61487.56;4986094;28;20033;-70
2023/06/09 05:00:57;;;;;;;21.10;7.45;;;;;;;-144.87;100.00;61487.56;5030054;28;19940;-69
2023/06/09 05:03:25;;;;;;;15.68;6.72;;;;;;;-144.87;100.00;61487.56;4980088;28;20053;-70
2023/06/09 05:05:52;;;;;;;24.88;7.78;;;;;;;-144.87;100.00;61487.56;4991712;28;20049;-69
2023/06/09 05:08:21;;;;;;;19.85;7.43;;;;;;;-144.87;100.00;61487.56;4988771;28;20038;-69
2023/06/09 05:10:48;;;;;;;22.00;7.55;;;;;;;-144.87;100.00;61487.56;4989653;28;20043;-70
2023/06/09 05:13:15;;;;;;;18.70;6.93;;;;;;;-144.87;100.00;61487.56;4985250;28;20455;-70
2023/06/09 05:15:43;;;;;;;19.38;7.40;;;;;;;-144.87;100.00;61487.56;4998817;28;20034;-70
2023/06/09 05:18:11;;;;;;;20.25;6.72;;;;;;;-144.87;100.00;61487.56;4989231;28;20026;-70
2023/06/09 05:20:37;;;;;;;17.90;7.22;;;;;;;-144.87;100.00;61487.56;4990675;28;20187;-69
2023/06/09 05:23:07;;;;;;;18.80;7.82;;;;;;;-144.87;100.00;61487.56;4983505;28;20209;-72
2023/06/09 05:25:35;;;;;;;24.08;7.57;;;;;;;-144.87;100.00;61487.56;5001848;28;20041;-70
2023/06/09 05:28:01;;;;;;;18.67;6.90;;;;;;;-144.87;100.00;61487.56;4982454;28;20077;-70
2023/06/09 05:30:27;;;;;;;23.55;7.32;;;;;;;-144.87;100.00;61487.56;4960317;28;20896;-70
2023/06/09 05:32:54;;;;;;;19.75;7.13;;;;;;;-144.87;100.00;61487.56;4978489;28;20573;-70
2023/06/09 05:35:20;;;;;;;21.83;6.63;;;;;;;-144.87;100.00;61487.56;4971201;28;20541;-71
2023/06/09 05:37:53;;;;;;;20.00;6.95;;;;;;;-144.87;100.00;61487.56;5011542;28;20046;-69
2023/06/09 05:40:23;;;;;;;20.33;7.63;;;;;;;-144.87;100.00;61487.56;4990504;28;20454;-68
2023/06/09 05:42:49;;;;;;;27.63;7.50;;;;;;;-144.87;100.00;61487.56;5006402;28;20025;-69
2023/06/09 05:45:17;;;;;;;20.85;7.85;;;;;;;-144.87;100.00;61487.56;5009326;28;20042;-69
2023/06/09 05:47:43;;;;;;;42.80;8.65;;;;;;;-144.87;100.00;61487.56;4993009;28;20038;-70
2023/06/09 05:50:10;;;;;;;18.60;6.80;;;;;;;-144.87;100.00;61487.56;5004434;28;20042;-70
2023/06/09 05:52:36;;;;;;;20.27;8.00;;;;;;;-144.87;100.00;61487.56;5008178;28;20065;-70
2023/06/09 05:55:04;;;;;;;18.45;7.55;;;;;;;-144.87;100.00;61487.56;4961549;28;20073;-70
2023/06/09 05:57:30;;;;;;;20.20;8.10;;;;;;;-144.87;100.00;61487.56;4976176;28;20048;-69
2023/06/09 05:59:57;;;;;;;32.15;7.72;;;;;;;-144.87;100.00;61487.56;5008773;28;20038;-70
2023/06/09 06:02:24;;;;;;;22.52;8.68;;;;;;;-144.87;100.00;61487.56;5000842;28;20129;-72
2023/06/09 06:04:50;;;;;;;21.05;7.35;;;;;;;-144.87;100.00;61487.56;4999769;28;20133;-71
2023/06/09 06:07:18;;;;;;;22.38;8.13;;;;;;;-144.87;100.00;61487.56;4984509;28;20057;-71
2023/06/09 06:09:44;;;;;;;21.08;8.18;;;;;;;-144.87;100.00;61487.56;4997802;28;20053;-70
2023/06/09 06:12:11;;;;;;;22.40;8.77;;;;;;;-144.87;100.00;61487.56;4985005;28;20121;-69
2023/06/09 06:14:37;;;;;;;22.77;8.40;;;;;;;-144.87;100.00;61487.56;4998449;28;20038;-71
2023/06/09 06:17:04;;;;;;;18.98;7.45;;;;;;;-144.87;100.00;61487.56;5001621;28;20080;-72
2023/06/09 06:19:30;;;;;;;22.38;8.15;;;;;;;-144.87;100.00;61487.56;4999208;28;20034;-69
2023/06/09 06:21:56;;;;;;;19.27;8.30;;;;;;;-144.87;100.00;61487.56;5002837;28;20034;-71
2023/06/09 06:24:22;;;;;;;23.35;8.02;;;;;;;-144.87;100.00;61487.56;4989352;28;20052;-70
2023/06/09 06:26:49;;;;;;;22.70;8.45;;;;;;;-144.87;100.00;61487.56;4997889;28;20046;-70
2023/06/09 06:29:16;;;;;;;17.23;7.88;;;;;;;-144.87;100.00;61487.56;4998022;28;20132;-72
2023/06/09 06:31:42;;;;;;;19.05;8.52;;;;;;;-144.87;100.00;61487.56;4999006;28;20038;-70
2023/06/09 06:34:09;;;;;;;21.00;8.25;;;;;;;-144.87;100.00;61487.56;4985534;28;20022;-70
2023/06/09 06:36:36;;;;;;;20.85;9.13;;;;;;;-144.87;100.00;61487.56;5000581;28;20077;-69
2023/06/09 06:39:02;;;;;;;23.58;8.75;;;;;;;-144.87;100.00;61487.56;4997911;28;20116;-70
2023/06/09 06:41:28;;;;;;;19.42;8.57;;;;;;;-144.87;100.00;61487.56;4973466;28;20133;-74
2023/06/09 06:43:55;;;;;;;22.17;8.50;;;;;;;-144.87;100.00;61487.56;5000188;28;20026;-71
2023/06/09 06:46:21;;;;;;;23.52;8.02;;;;;;;-144.87;100.00;61487.56;5002494;28;20042;-70
2023/06/09 06:48:47;;;;;;;20.85;8.63;;;;;;;-144.87;100.00;61487.56;4984796;28;20042;-72
2023/06/09 06:51:13;;;;;;;22.00;8.63;;;;;;;-144.87;100.00;61487.56;4986925;28;20133;-70
2023/06/09 06:53:40;;;;;;;20.85;8.68;;;;;;;-144.87;100.00;61487.56;4985128;28;20517;-70
2023/06/09 06:56:06;;;;;;;19.38;9.07;;;;;;;-144.87;100.00;61487.56;4982853;28;20045;-71
2023/06/09 06:58:32;;;;;;;17.80;8.20;;;;;;;-144.87;100.00;61487.56;4987930;28;20053;-70
2023/06/09 07:00:59;;;;;;;15.73;7.82;;;;;;;-144.87;100.00;61487.56;4985122;28;20042;-70
2023/06/09 07:03:26;;;;;;;15.15;8.20;;;;;;;-144.87;100.00;61487.56;5000515;28;20680;-70
2023/06/09 07:05:56;;;;;;;24.17;8.05;;;;;;;-144.87;100.00;61487.56;4977525;28;20034;-70
2023/06/09 07:08:22;;;;;;;21.75;8.98;;;;;;;-144.87;100.00;61487.56;5000289;28;20137;-71
2023/06/09 07:10:48;;;;;;;19.92;9.23;;;;;;;-144.87;100.00;61487.56;4987084;28;20211;-71
2023/06/09 07:13:15;;;;;;;21.80;8.98;;;;;;;-144.87;100.00;61487.56;4972013;28;20049;-71
2023/06/09 07:15:41;;;;;;;25.05;9.15;;;;;;;-144.87;100.00;61487.56;4991050;28;20325;-71
2023/06/09 07:18:08;;;;;;;18.75;8.80;;;;;;;-144.87;100.00;61487.56;4985553;28;20042;-70
2023/06/09 07:20:35;;;;;;;16.63;8.35;;;;;;;-144.87;100.00;61487.56;4969900;28;20212;-70
2023/06/09 07:23:03;;;;;;;18.10;9.02;;;;;;;-144.87;100.00;61487.56;4990577;28;20124;-71
2023/06/09 07:25:31;;;;;;;18.55;9.20;;;;;;;-144.87;100.00;61487.56;5003484;28;20038;-70
2023/06/09 07:27:57;;;;;;;27.00;9.27;;;;;;;-144.87;100.00;61487.56;4983149;28;20064;-71
2023/06/09 07:30:23;;;;;;;23.88;9.15;;;;;;;-144.87;100.00;61487.56;4984002;28;20042;-71
2023/06/09 07:32:50;;;;;;;27.45;8.95;;;;;;;-144.87;100.00;61487.56;5005471;28;20052;-71
2023/06/09 07:35:19;;;;;;;25.13;9.02;;;;;;;-144.87;100.00;61487.56;5000476;28;20038;-72
2023/06/09 07:37:46;;;;;;;18.15;8.88;;;;;;;-144.87;100.00;61487.56;4983464;28;20046;-71
2023/06/09 07:40:13;;;;;;;23.98;8.90;;;;;;;-144.87;100.00;61487.56;4999503;28;20133;-71
2023/06/09 07:42:39;;;;;;;18.98;9.32;;;;;;;-144.87;100.00;61487.56;5003041;28;20034;-70
2023/06/09 07:45:07;;;;;;;17.98;8.38;;;;;;;-144.87;100.00;61487.56;4973386;28;20050;-73
2023/06/09 07:47:33;;;;;;;21.50;8.98;;;;;;;-144.87;100.00;61487.56;4959205;28;20038;-70
2023/06/09 07:50:01;;;;;;;22.73;9.82;;;;;;;-144.87;100.00;61487.56;4962110;28;20038;-70
2023/06/09 07:52:27;;;;;;;19.98;8.65;;;;;;;-144.87;100.00;61487.56;4964687;28;20070;-70
2023/06/09 07:54:53;;;;;;;16.85;8.80;;;;;;;-144.87;100.00;61487.56;4944082;28;20149;-69
2023/06/09 07:57:20;;;;;;;17.80;9.63;;;;;;;-144.87;100.00;61487.56;4980015;28;20506;-69
2023/06/09 07:59:46;;;;;;;22.00;9.05;;;;;;;-144.87;100.00;61487.56;4975702;28;20069;-69
2023/06/09 08:02:14;;;;;;;22.55;9.30;;;;;;;-144.87;100.00;61487.56;4967047;28;20502;-69
2023/06/09 08:04:41;;;;;;;18.50;9.43;;;;;;;-144.87;100.00;61487.56;4984643;28;20037;-70
2023/06/09 08:07:07;;;;;;;24.13;10.15;;;;;;;-144.87;100.00;61487.56;5006832;28;20092;-70
2023/06/09 08:09:34;;;;;;;20.40;9.18;;;;;;;-144.87;100.00;61487.56;5005609;28;20034;-70
2023/06/09 08:12:00;;;;;;;28.20;9.57;;;;;;;-144.87;100.00;61487.56;4999937;28;20042;-70
2023/06/09 08:14:26;;;;;;;22.17;9.68;;;;;;;-144.87;100.00;61487.56;4996865;28;20045;-70
2023/06/09 08:16:52;;;;;;;17.33;9.90;;;;;;;-144.87;100.00;61487.56;5008413;28;20054;-70
2023/06/09 08:19:19;;;;;;;20.95;9.18;;;;;;;-144.87;100.00;61487.56;5005600;28;20041;-70
2023/06/09 08:21:45;;;;;;;24.27;8.98;;;;;;;-144.87;100.00;61487.56;5004633;28;20045;-70
2023/06/09 08:24:12;;;;;;;17.92;8.85;;;;;;;-144.87;100.00;61487.56;5005855;28;20042;-69
2023/06/09 08:26:38;;;;;;;20.52;9.38;;;;;;;-144.87;100.00;61487.56;5005503;28;20034;-70
2023/06/09 08:29:06;;;;;;;20.10;9.50;;;;;;;-144.87;100.00;61487.56;5000520;28;20042;-72
2023/06/09 08:31:33;;;;;;;18.60;9.20;;;;;;;-144.87;100.00;61487.56;5000125;28;20092;-70
2023/06/09 08:34:00;;;;;;;20.17;9.13;;;;;;;-144.87;100.00;61487.56;5005680;28;20030;-70
2023/06/09 08:36:26;;;;;;;22.02;9.93;;;;;;;-144.87;100.00;61487.56;5013221;28;20088;-70
2023/06/09 08:38:53;;;;;;;19.52;9.18;;;;;;;-144.87;100.00;61487.56;5007417;28;20555;-71
2023/06/09 08:41:24;;;;;;;18.88;8.82;;;;;;;-144.87;100.00;61487.56;5014098;28;20126;-71
2023/06/09 08:43:50;;;;;;;16.88;8.73;;;;;;;-144.87;100.00;61487.56;5020366;28;20033;-73
2023/06/09 08:46:17;;;;;;;14.80;8.88;;;;;;;-144.87;100.00;61487.56;5035865;28;20069;-70
2023/06/09 08:48:52;;;;;;;23.65;9.27;;;;;;;-144.87;100.00;61487.56;5023065;28;20042;-71
2023/06/09 08:51:21;;;;;;;19.95;8.25;;;;;;;-144.87;100.00;61487.56;5053283;28;20128;-69
2023/06/09 08:53:52;;;;;;;17.27;8.98;;;;;;;-144.87;100.00;61487.56;5025704;28;20033;-69
2023/06/09 08:56:21;;;;;;;17.23;8.57;;;;;;;-144.87;100.00;61487.56;5020878;28;20077;-70
2023/06/09 08:58:49;;;;;;;18.52;8.50;;;;;;;-144.87;100.00;61487.56;5031616;28;20061;-72
2023/06/09 09:01:20;;;;;;;18.30;8.50;;;;;;;-144.87;100.00;61487.56;5002103;28;20033;-70
2023/06/09 09:03:48;;;;;;;20.17;9.60;;;;;;;-144.87;100.00;61487.56;4983246;28;20393;-69
2023/06/09 09:06:15;;;;;;;20.27;8.32;;;;;;;-144.87;100.00;61487.56;4966237;28;20030;-70
2023/06/09 09:08:43;;;;;;;23.23;9.07;;;;;;;-144.87;100.00;61487.56;4965011;28;20034;-69
2023/06/09 09:11:10;;;;;;;14.43;7.95;;;;;;;-144.87;100.00;61487.56;4993816;28;20390;-70
2023/06/09 09:13:36;;;;;;;17.40;8.43;;;;;;;-144.87;100.00;61487.56;4978254;28;20045;-71
2023/06/09 09:16:02;;;;;;;17.08;7.97;;;;;;;-144.87;100.00;61487.56;4979155;28;20038;-70
2023/06/09 09:18:35;;;;;;;22.02;9.02;;;;;;;-144.87;100.00;61487.56;4997253;28;20419;-70
2023/06/09 09:21:02;;;;;;;17.20;8.68;;;;;;;-144.87;100.00;61487.56;4995695;28;20097;-71
2023/06/09 09:23:32;;;;;;;20.13;8.00;;;;;;;-144.87;100.00;61487.56;4999433;28;20038;-72
2023/06/09 09:26:03;;;;;;;21.13;8.35;;;;;;;-144.87;100.00;61487.56;4988141;28;20072;-69
2023/06/09 09:28:39;;;;;;;15.85;8.07;;;;;;;-144.87;100.00;61487.56;5006270;28;20034;-72
2023/06/09 09:31:08;;;;;;;15.77;8.20;;;;;;;-144.87;100.00;61487.56;4990281;28;20045;-71
2023/06/09 09:33:38;;;;;;;20.20;8.05;;;;;;;-144.87;100.00;61487.56;5009424;28;20041;-73
2023/06/09 09:36:09;;;;;;;25.90;8.27;;;;;;;-144.87;100.00;61487.56;5006414;28;20046;-71
2023/06/09 09:38:36;;;;;;;27.45;8.18;;;;;;;-144.87;100.00;61487.56;4999559;28;20050;-71
2023/06/09 09:41:05;;;;;;;27.13;7.75;;;;;;;-144.87;100.00;61487.56;4969867;28;20038;-71
2023/06/09 09:43:31;;;;;;;25.10;8.80;;;;;;;-144.87;100.00;61487.56;4990504;28;20045;-71
2023/06/09 09:46:04;;;;;;;13.90;7.53;;;;;;;-144.87;100.00;61487.56;4998851;28;20093;-71
2023/06/09 09:48:31;;;;;;;12.25;6.97;;;;;;;-144.87;100.00;61487.56;4995168;28;20037;-71
2023/06/09 09:50:58;;;;;;;14.88;7.40;;;;;;;-144.87;100.00;61487.56;4994923;28;20046;-71
2023/06/09 09:53:25;;;;;;;14.02;7.82;;;;;;;-144.87;100.00;61487.56;5002397;28;20042;-70
2023/06/09 09:55:53;;;;;;;17.73;7.85;;;;;;;-144.87;100.00;61487.56;5001967;28;20038;-70
2023/06/09 09:58:22;;;;;;;18.50;7.85;;;;;;;-144.87;100.00;61487.56;4998121;28;20091;-71
2023/06/09 10:00:49;;;;;;;15.93;8.40;;;;;;;-144.87;100.00;61487.56;4980787;28;20042;-70
2023/06/09 10:03:19;;;;;;;17.05;8.18;;;;;;;-144.87;100.00;61487.56;4994454;28;20280;-70
2023/06/09 10:05:47;;;;;;;24.05;7.97;;;;;;;-144.87;100.00;61487.56;5011660;28;20403;-70
2023/06/09 10:08:35;;;;;;;14.82;8.57;;;;;;;-144.87;100.00;61487.56;5004901;28;20034;-71
2023/06/09 10:11:02;;;;;;;17.60;8.40;;;;;;;-144.87;100.00;61487.56;5034185;28;20044;-71
2023/06/09 10:13:29;;;;;;;15.05;8.50;;;;;;;-144.87;100.00;61487.56;5009341;28;20199;-71
2023/06/09 10:15:56;;;;;;;19.77;8.43;;;;;;;-144.87;100.00;61487.56;4996628;28;20040;-71
2023/06/09 10:18:23;;;;;;;23.60;8.40;;;;;;;-144.87;100.00;61487.56;5004073;28;20069;-71
2023/06/09 10:20:52;;;;;;;11.23;8.02;;;;;;;-144.87;100.00;61487.56;5019632;28;20553;-71
2023/06/09 10:23:18;;;;;;;13.73;8.32;;;;;;;-144.87;100.00;61487.56;4995822;28;20037;-71
2023/06/09 10:25:51;;;;;;;17.38;8.18;;;;;;;-144.87;100.00;61487.56;5023407;28;20037;-72
2023/06/09 10:28:19;;;;;;;17.75;8.35;;;;;;;-144.87;100.00;61487.56;5032309;28;20033;-69
2023/06/09 10:30:49;;;;;;;19.42;9.25;;;;;;;-144.87;100.00;61487.56;5011724;28;20025;-70
2023/06/09 10:33:27;;;;;;;16.00;7.80;;;;;;;-144.87;100.00;61487.56;4984745;28;20042;-69
2023/06/09 10:35:58;;;;;;;17.45;8.85;;;;;;;-144.87;100.00;61487.56;5011450;28;20038;-69
2023/06/09 10:38:39;;;;;;;17.27;8.85;;;;;;;-144.87;100.00;61487.56;5010565;28;20617;-69
2023/06/09 10:41:33;;;;;;;15.57;8.25;;;;;;;-144.87;100.00;61487.56;5027281;28;20125;-73
2023/06/09 10:44:11;;;;;;;18.00;8.02;;;;;;;-144.87;100.00;61487.56;5022025;28;20076;-69
2023/06/09 10:46:44;;;;;;;18.25;7.80;;;;;;;-144.87;100.00;61487.56;5026981;28;20046;-70
2023/06/09 10:49:26;;;;;;;12.73;7.78;;;;;;;-144.87;100.00;61487.56;5000409;28;20034;-70
2023/06/09 10:51:53;;;;;;;19.52;9.07;;;;;;;-144.87;100.00;61487.56;5001802;28;20070;-70
2023/06/09 10:54:21;;;;;;;18.05;7.68;;;;;;;-144.87;100.00;61487.56;5002674;28;20100;-70
2023/06/09 10:57:00;;;;;;;14.13;8.40;;;;;;;-144.87;100.00;61487.56;5029328;28;20132;-70
2023/06/09 10:59:26;;;;;;;14.63;7.53;;;;;;;-144.87;100.00;61487.56;4994861;28;20042;-71
2023/06/09 11:02:15;;;;;;;15.25;8.50;;;;;;;-144.87;100.00;61487.56;4999061;28;20033;-71
2023/06/09 11:04:48;;;;;;;14.98;8.32;;;;;;;-144.87;100.00;61487.56;4978538;28;20799;-72
2023/06/09 11:07:27;;;;;;;19.42;8.15;;;;;;;-144.87;100.00;61487.56;4965268;28;20097;-70